LavenderCAM.net
Leatherhead Weather
 
Leatherhead Weather
 
 





Aviation weather for

London Heathrow (EGLL) and London Gatwick (EGKK)



London Heathrow (EGLL) METAR / Surface Actual
London / Heathrow Airport, United Kingdom (EGLL) 51-29N 000-27W 0M
Jan 26, 2020 - 11:50 AM EST / 2020.01.26 1650 UTC
Wind: from the SSW (200 degrees) at 15 MPH (13 KT):0
Visibility: greater than 7 mile(s):0
Sky conditions: partly cloudy
Weather: light rain
Temperature: 48 F (9 C)
Dew Point: 46 F (8 C)
Relative Humidity: 93%
Pressure (altimeter): 29.71 in. Hg (1006 hPa)
ob: EGLL 261650Z 20013KT 9999 -RA FEW012 SCT040 09/08 Q1006 TEMPO BKN014
cycle: 17
London Heathrow (EGLL) TAF / Forecast
2020/01/26 12:09
TAF EGLL 261105Z 2612/2718 20012KT 9999 SCT030 
      TEMPO 2613/2619 7000 -RA BKN014 PROB40 
      TEMPO 2615/2619 4000 RA BKN009 PROB30 
      TEMPO 2619/2703 BKN006 PROB30 
      TEMPO 2703/2718 6000 SHRA BKN014


London Gatwick (EGKK) METAR / Surface Actual
London / Gatwick Airport, United Kingdom (EGKK) 51-09N 000-11W 0M
Jan 26, 2020 - 11:50 AM EST / 2020.01.26 1650 UTC
Wind: from the S (190 degrees) at 13 MPH (11 KT) (direction variable):0
Visibility: 3 mile(s):0
Sky conditions: mostly cloudy
Weather: light rain
Temperature: 48 F (9 C)
Dew Point: 48 F (9 C)
Relative Humidity: 100%
Pressure (altimeter): 29.74 in. Hg (1007 hPa)
ob: EGKK 261650Z 19011KT 160V220 6000 -RA BKN008 09/09 Q1007
cycle: 17
London Gatwick (EGKK) TAF / Forecast
2020/01/26 12:09
TAF TAF EGKK 261105Z 2612/2718 20010KT 9999 FEW012 BKN025 
      TEMPO 2612/2620 7000 -RA BKN012 PROB40 
      TEMPO 2613/2620 4000 RA BKN008 PROB30 
      TEMPO 2614/2619 21015G25KT PROB30 
      TEMPO 2620/2702 8000 -SHRA BKN006 PROB30 
      TEMPO 2702/2718 7000 SHRA BKN014